Time;durP1;ratioP1;P1;durP2;ratioP2;P2;SDS_P1;SDS_P2;PMS_P1;PMS_P2;Temp;Humidity;BMP_temperature;BMP_pressure;BME280_temperature;BME280_humidity;BME280_pressure;Samples;Min_cycle;Max_cycle;Signal;HPM_P1;HPM_P2
2023/10/24 00:02:22;;;;;;;;;;;;;;;26.59;42.22;93432.81;5013955;28;7263;-65
2023/10/24 00:04:50;;;;;;;;;;;;;;;26.57;42.22;93413.28;4997351;28;7175;-65
2023/10/24 00:07:19;;;;;;;;;;;;;;;26.55;42.32;93422.13;5012020;28;7251;-65
2023/10/24 00:09:45;;;;;;;;;;;;;;;26.56;42.05;93426.34;5012776;28;7281;-65
2023/10/24 00:12:19;;;;;;;;;;;;;;;26.58;42.44;93428.56;5033130;28;9114;-65
2023/10/24 00:14:56;;;;;;;;;;;;;;;26.56;42.29;93434.63;5031865;28;7210;-65
2023/10/24 00:17:41;;;;;;;;;;;;;;;26.54;41.92;93419.88;5024771;28;6992;-65
2023/10/24 00:20:07;;;;;;;;;;;;;;;26.53;42.43;93423.94;5034348;28;9048;-65
2023/10/24 00:22:37;;;;;;;;;;;;;;;26.53;42.62;93429.44;5019467;28;8775;-65
2023/10/24 00:25:05;;;;;;;;;;;;;;;26.53;42.22;93437.72;5027689;28;9453;-65
2023/10/24 00:27:32;;;;;;;;;;;;;;;26.50;42.47;93436.03;5019909;28;7264;-65
2023/10/24 00:29:59;;;;;;;;;;;;;;;26.48;42.48;93427.56;5019843;28;8673;-65
2023/10/24 00:32:34;;;;;;;;;;;;;;;26.49;42.27;93434.56;5032746;28;7142;-65
2023/10/24 00:35:02;;;;;;;;;;;;;;;26.48;42.25;93416.53;5019316;28;6993;-65
2023/10/24 00:37:30;;;;;;;;;;;;;;;26.47;42.55;93424.06;5024447;28;8982;-65
2023/10/24 00:40:01;;;;;;;;;;;;;;;26.46;42.24;93399.78;5031899;28;7227;-65
2023/10/24 00:42:28;;;;;;;;;;;;;;;26.47;41.98;93396.47;4998521;28;7185;-65
2023/10/24 00:45:20;;;;;;;;;;;;;;;26.47;42.41;93395.78;5004839;28;7314;-62
2023/10/24 00:47:48;;;;;;;;;;;;;;;26.45;42.21;93390.78;4959751;28;7217;-62
2023/10/24 00:50:16;;;;;;;;;;;;;;;26.43;42.34;93396.09;4973419;28;7092;-62
2023/10/24 00:52:45;;;;;;;;;;;;;;;26.44;42.57;93394.06;4953025;28;7299;-62
2023/10/24 00:55:14;;;;;;;;;;;;;;;26.42;42.32;93391.88;4955096;28;7875;-62
2023/10/24 00:57:41;;;;;;;;;;;;;;;26.41;42.53;93393.13;4967617;28;7006;-62
2023/10/24 01:00:08;;;;;;;;;;;;;;;26.39;42.38;93387.44;4952867;28;7117;-62
2023/10/24 01:02:36;;;;;;;;;;;;;;;26.40;42.50;93394.44;4975160;28;7204;-62
2023/10/24 01:05:04;;;;;;;;;;;;;;;26.40;42.51;93385.41;4979902;28;7053;-63
2023/10/24 01:07:32;;;;;;;;;;;;;;;26.37;42.91;93389.97;4964358;28;6917;-62
2023/10/24 01:10:07;;;;;;;;;;;;;;;26.35;42.41;93369.75;4951119;28;7165;-62
2023/10/24 01:12:35;;;;;;;;;;;;;;;26.38;42.42;93380.41;4972000;28;6994;-62
2023/10/24 01:15:03;;;;;;;;;;;;;;;26.38;42.58;93383.19;4963105;28;7416;-62
2023/10/24 01:17:31;;;;;;;;;;;;;;;26.34;42.42;93368.28;4976067;28;7050;-62
2023/10/24 01:19:59;;;;;;;;;;;;;;;26.36;42.26;93357.44;4941283;28;7186;-62
2023/10/24 01:22:26;;;;;;;;;;;;;;;26.34;42.51;93348.97;4963404;28;7037;-62
2023/10/24 01:24:53;;;;;;;;;;;;;;;26.35;42.41;93353.19;5004206;28;7224;-62
2023/10/24 01:27:25;;;;;;;;;;;;;;;26.29;42.30;93349.84;5029952;28;7876;-62
2023/10/24 01:29:52;;;;;;;;;;;;;;;26.30;42.71;93352.06;5033606;28;7344;-62
2023/10/24 01:32:20;;;;;;;;;;;;;;;26.30;42.33;93340.28;5017942;28;7357;-62
2023/10/24 01:34:49;;;;;;;;;;;;;;;26.30;42.45;93340.28;5036561;28;7042;-62
2023/10/24 01:37:15;;;;;;;;;;;;;;;26.30;42.95;93329.25;5014004;28;7233;-62
2023/10/24 01:39:44;;;;;;;;;;;;;;;26.24;42.77;93334.94;5017839;28;8862;-62
2023/10/24 01:42:11;;;;;;;;;;;;;;;26.24;42.86;93343.19;5016707;28;7238;-62
2023/10/24 01:44:37;;;;;;;;;;;;;;;26.24;42.66;93337.69;5031979;28;9103;-62
2023/10/24 01:47:12;;;;;;;;;;;;;;;26.25;42.88;93344.69;5022019;28;7462;-62
2023/10/24 01:49:40;;;;;;;;;;;;;;;26.24;42.72;93343.19;5031416;28;7506;-62
2023/10/24 01:52:06;;;;;;;;;;;;;;;26.25;42.80;93332.94;5018830;28;8730;-62
2023/10/24 01:54:33;;;;;;;;;;;;;;;26.24;42.72;93320.41;5030308;28;8545;-53
2023/10/24 01:57:02;;;;;;;;;;;;;;;26.22;42.67;93318.19;5026183;28;9186;-54
2023/10/24 01:59:30;;;;;;;;;;;;;;;26.24;43.09;93314.91;5017982;28;7263;-54
2023/10/24 02:02:09;;;;;;;;;;;;;;;26.23;43.18;93324.47;5015865;28;7054;-54
2023/10/24 02:04:35;;;;;;;;;;;;;;;26.20;43.17;93314.50;5017064;28;7662;-54
2023/10/24 02:07:03;;;;;;;;;;;;;;;26.21;43.00;93310.47;5012796;28;8831;-54
2023/10/24 02:09:31;;;;;;;;;;;;;;;26.19;42.85;93299.25;5013118;28;7034;-54
2023/10/24 02:12:03;;;;;;;;;;;;;;;26.21;42.06;93304.97;5029665;28;7306;-54
2023/10/24 02:14:31;;;;;;;;;;;;;;;26.19;42.58;93307.53;5030877;28;9071;-55
2023/10/24 02:16:58;;;;;;;;;;;;;;;26.17;43.02;93308.78;5009367;28;7241;-55
2023/10/24 02:19:25;;;;;;;;;;;;;;;26.19;43.01;93318.56;5027393;28;7643;-54
2023/10/24 02:21:56;;;;;;;;;;;;;;;26.16;42.89;93315.56;5032579;28;9140;-54
2023/10/24 02:24:22;;;;;;;;;;;;;;;26.18;42.40;93312.28;5032893;28;7072;-54
2023/10/24 02:26:55;;;;;;;;;;;;;;;26.16;43.19;93315.56;5007033;28;7800;-55
2023/10/24 02:29:23;;;;;;;;;;;;;;;26.15;43.23;93300.34;5015044;28;7273;-54
2023/10/24 02:31:51;;;;;;;;;;;;;;;26.15;42.83;93310.59;5012725;28;7161;-54
2023/10/24 02:34:17;;;;;;;;;;;;;;;26.12;43.26;93309.66;5039801;28;9001;-53
2023/10/24 02:36:47;;;;;;;;;;;;;;;26.15;42.87;93314.09;5035154;28;9121;-54
2023/10/24 02:39:14;;;;;;;;;;;;;;;26.13;42.40;93313.91;5023641;28;8838;-55
2023/10/24 02:41:43;;;;;;;;;;;;;;;26.14;43.07;93323.66;5041589;28;7857;-54
2023/10/24 02:44:09;;;;;;;;;;;;;;;26.12;42.43;93326.19;4988326;28;8813;-54
2023/10/24 02:46:35;;;;;;;;;;;;;;;26.06;43.04;93322.06;5004273;28;7234;-54
2023/10/24 02:49:07;;;;;;;;;;;;;;;26.08;42.67;93325.81;5024297;28;7737;-54
2023/10/24 02:51:38;;;;;;;;;;;;;;;26.11;43.16;93330.25;5038274;28;7238;-53
2023/10/24 02:54:05;;;;;;;;;;;;;;;26.09;43.00;93332.81;5009841;28;7067;-53
2023/10/24 02:57:07;;;;;;;;;;;;;;;26.11;42.76;93324.00;5033599;28;9301;-55
2023/10/24 02:59:35;;;;;;;;;;;;;;;26.07;42.79;93307.78;5009986;28;9358;-53
2023/10/24 03:02:05;;;;;;;;;;;;;;;26.05;42.69;93304.84;5043643;28;8392;-54
2023/10/24 03:04:50;;;;;;;;;;;;;;;26.07;42.73;93294.00;5032585;28;7404;-65
2023/10/24 03:07:26;;;;;;;;;;;;;;;26.08;42.92;93289.22;5013883;28;8456;-65
2023/10/24 03:09:52;;;;;;;;;;;;;;;26.09;42.60;93304.50;5008371;28;8914;-65
2023/10/24 03:12:27;;;;;;;;;;;;;;;26.10;42.53;93303.22;5021855;28;7016;-65
2023/10/24 03:14:54;;;;;;;;;;;;;;;26.07;43.26;93307.78;5037855;28;8589;-65
2023/10/24 03:17:46;;;;;;;;;;;;;;;26.07;43.13;93291.25;5027227;28;7417;-65
2023/10/24 03:20:13;;;;;;;;;;;;;;;26.05;42.96;93285.53;4970177;28;7279;-65
2023/10/24 03:22:44;;;;;;;;;;;;;;;26.05;42.57;93288.28;4954562;28;7211;-65
2023/10/24 03:25:12;;;;;;;;;;;;;;;26.04;43.10;93291.56;4946547;28;6965;-65
2023/10/24 03:27:40;;;;;;;;;;;;;;;26.03;42.64;93285.31;4963637;28;7596;-65
2023/10/24 03:30:15;;;;;;;;;;;;;;;26.02;43.23;93272.84;4948606;28;7413;-65
2023/10/24 03:32:50;;;;;;;;;;;;;;;26.02;42.88;93278.34;4959629;28;7063;-65
2023/10/24 03:35:16;;;;;;;;;;;;;;;26.03;43.02;93277.03;4950547;28;7592;-65
2023/10/24 03:38:01;;;;;;;;;;;;;;;26.00;42.77;93285.66;4942112;28;8549;-65
2023/10/24 03:40:38;;;;;;;;;;;;;;;26.01;43.21;93287.88;4954977;28;7177;-65
2023/10/24 03:43:04;;;;;;;;;;;;;;;26.01;43.32;93281.66;4951502;28;8953;-65
2023/10/24 03:45:48;;;;;;;;;;;;;;;26.01;43.14;93270.63;4966681;28;7289;-65
2023/10/24 03:48:18;;;;;;;;;;;;;;;26.01;42.80;93273.38;4945451;28;7273;-65
2023/10/24 03:50:58;;;;;;;;;;;;;;;26.01;43.20;93270.63;4958388;28;7011;-65
2023/10/24 03:53:29;;;;;;;;;;;;;;;25.99;43.34;93264.91;4954319;28;7054;-65
2023/10/24 03:56:04;;;;;;;;;;;;;;;26.00;43.30;93255.38;4956611;28;8814;-65
2023/10/24 03:58:44;;;;;;;;;;;;;;;25.99;43.13;93254.63;5025753;28;9069;-65
2023/10/24 04:01:10;;;;;;;;;;;;;;;25.98;42.87;93255.91;5031058;28;7224;-65
2023/10/24 04:03:37;;;;;;;;;;;;;;;25.97;43.17;93248.91;5030154;28;7089;-65
2023/10/24 04:06:17;;;;;;;;;;;;;;;25.97;43.33;93259.19;5015400;28;6999;-65
2023/10/24 04:08:46;;;;;;;;;;;;;;;25.97;42.63;93259.19;5011194;28;7312;-65
2023/10/24 04:11:14;;;;;;;;;;;;;;;25.93;42.83;93259.53;5010723;28;8193;-65
2023/10/24 04:13:40;;;;;;;;;;;;;;;25.95;42.88;93261.75;5020323;28;9188;-61
2023/10/24 04:16:06;;;;;;;;;;;;;;;25.96;42.76;93275.00;5010463;28;7349;-61
2023/10/24 04:19:02;;;;;;;;;;;;;;;25.94;42.86;93274.81;5031332;28;6991;-61
2023/10/24 04:21:37;;;;;;;;;;;;;;;25.89;42.85;93270.16;4961934;28;7315;-61
2023/10/24 04:24:04;;;;;;;;;;;;;;;25.86;43.56;93276.75;4975005;28;7169;-61
2023/10/24 04:26:32;;;;;;;;;;;;;;;25.88;42.80;93290.72;4953815;28;7236;-61
2023/10/24 04:29:00;;;;;;;;;;;;;;;25.90;43.43;93290.19;4966315;28;7157;-61
2023/10/24 04:31:40;;;;;;;;;;;;;;;25.92;43.37;93293.88;4963634;28;7261;-60
2023/10/24 04:34:08;;;;;;;;;;;;;;;25.92;42.67;93285.63;4974923;28;7004;-60
2023/10/24 04:36:34;;;;;;;;;;;;;;;25.88;42.83;93287.97;4975884;28;7093;-60
2023/10/24 04:39:02;;;;;;;;;;;;;;;25.89;43.63;93292.19;4968199;28;9072;-60
2023/10/24 04:41:38;;;;;;;;;;;;;;;25.90;43.32;93282.66;4972260;28;7151;-60
2023/10/24 04:44:04;;;;;;;;;;;;;;;25.90;42.75;93260.59;4957498;28;7247;-61
2023/10/24 04:46:40;;;;;;;;;;;;;;;25.90;42.79;93257.84;4974580;28;7624;-61
2023/10/24 04:49:07;;;;;;;;;;;;;;;25.90;43.17;93248.88;4975869;28;9288;-60
2023/10/24 04:51:35;;;;;;;;;;;;;;;25.88;43.13;93243.88;4955556;28;7421;-60
2023/10/24 04:54:03;;;;;;;;;;;;;;;25.89;43.07;93244.63;4977644;28;7895;-61
2023/10/24 04:56:29;;;;;;;;;;;;;;;25.90;43.21;93244.06;4951670;28;7131;-61
2023/10/24 04:58:59;;;;;;;;;;;;;;;25.88;42.90;93241.13;5016330;28;7206;-60
2023/10/24 05:01:37;;;;;;;;;;;;;;;25.87;43.09;93227.91;5016273;28;7541;-61
2023/10/24 05:04:07;;;;;;;;;;;;;;;25.85;43.39;93233.97;5025177;28;7000;-60
2023/10/24 05:06:44;;;;;;;;;;;;;;;25.82;43.41;93232.28;5021962;28;7814;-61
2023/10/24 05:09:15;;;;;;;;;;;;;;;25.82;43.89;93226.75;5025523;28;7327;-60
2023/10/24 05:11:52;;;;;;;;;;;;;;;25.82;43.44;93229.53;5025230;28;9425;-60
2023/10/24 05:14:19;;;;;;;;;;;;;;;25.78;43.27;93220.88;5039539;28;7316;-61
2023/10/24 05:16:47;;;;;;;;;;;;;;;25.80;43.61;93209.28;5044565;28;8692;-61
2023/10/24 05:19:15;;;;;;;;;;;;;;;25.77;43.58;93197.38;5053990;28;7018;-61
2023/10/24 05:21:41;;;;;;;;;;;;;;;25.78;43.15;93187.81;5040958;28;9078;-60
2023/10/24 05:24:09;;;;;;;;;;;;;;;25.80;44.10;93195.53;5042848;28;7248;-60
2023/10/24 05:26:35;;;;;;;;;;;;;;;25.76;43.50;93195.13;5029817;28;7223;-60
2023/10/24 05:29:01;;;;;;;;;;;;;;;25.78;44.16;93198.81;5021890;28;7232;-61
2023/10/24 05:31:31;;;;;;;;;;;;;;;25.77;43.44;93200.13;5023944;28;7191;-60
2023/10/24 05:34:31;;;;;;;;;;;;;;;25.78;43.72;93200.84;5022473;28;8559;-60
2023/10/24 05:37:08;;;;;;;;;;;;;;;25.75;43.32;93197.16;4960014;28;7186;-60
2023/10/24 05:39:34;;;;;;;;;;;;;;;25.71;44.09;93196.03;4965243;28;7648;-60
2023/10/24 05:42:13;;;;;;;;;;;;;;;25.72;43.59;93195.47;4957034;28;7249;-60
2023/10/24 05:44:42;;;;;;;;;;;;;;;25.68;43.04;93192.34;4969480;28;9049;-61
2023/10/24 05:47:11;;;;;;;;;;;;;;;25.71;43.28;93193.28;4967539;28;7182;-60
2023/10/24 05:49:39;;;;;;;;;;;;;;;25.71;43.44;93205.00;4972120;28;7275;-60
2023/10/24 05:52:10;;;;;;;;;;;;;;;25.74;43.82;93212.22;4970339;28;7363;-60
2023/10/24 05:54:37;;;;;;;;;;;;;;;25.81;43.46;93224.56;4956586;28;7428;-60
2023/10/24 05:57:04;;;;;;;;;;;;;;;25.88;43.15;93230.09;4977123;28;7246;-60
2023/10/24 05:59:33;;;;;;;;;;;;;;;25.91;43.13;93215.25;4949064;28;7275;-60
2023/10/24 06:01:58;;;;;;;;;;;;;;;26.00;43.34;93214.03;4972554;28;8290;-60
2023/10/24 06:04:26;;;;;;;;;;;;;;;26.07;43.08;93210.59;4973490;28;9475;-60
2023/10/24 06:06:59;;;;;;;;;;;;;;;26.16;43.08;93215.63;4959771;28;8879;-60
2023/10/24 06:09:25;;;;;;;;;;;;;;;26.25;42.73;93214.41;4965309;28;7332;-60
2023/10/24 06:11:51;;;;;;;;;;;;;;;26.33;42.88;93213.16;4970316;28;7625;-60
2023/10/24 06:14:17;;;;;;;;;;;;;;;26.38;42.40;93223.28;5045877;28;7219;-60
2023/10/24 06:16:43;;;;;;;;;;;;;;;26.44;42.56;93234.16;5030220;28;7291;-60
2023/10/24 06:19:12;;;;;;;;;;;;;;;26.49;42.13;93231.22;5033316;28;7158;-60
2023/10/24 06:21:51;;;;;;;;;;;;;;;26.54;41.99;93226.84;5040308;28;9428;-60
2023/10/24 06:24:16;;;;;;;;;;;;;;;26.59;42.30;93228.72;5033775;28;7342;-60
2023/10/24 06:26:43;;;;;;;;;;;;;;;26.60;42.11;93236.44;5021171;28;7433;-60
2023/10/24 06:29:09;;;;;;;;;;;;;;;26.61;41.64;93243.44;5020681;28;8765;-60
2023/10/24 06:31:36;;;;;;;;;;;;;;;26.67;41.60;93241.25;5051514;28;7729;-60
2023/10/24 06:34:06;;;;;;;;;;;;;;;26.70;41.75;93231.16;5045098;28;7440;-63
2023/10/24 06:36:37;;;;;;;;;;;;;;;26.70;41.64;93222.88;5050011;28;7256;-62
2023/10/24 06:39:04;;;;;;;;;;;;;;;26.77;41.47;93227.72;5036112;28;7369;-62
2023/10/24 06:41:59;;;;;;;;;;;;;;;26.78;41.60;93235.44;5038181;28;7181;-63
2023/10/24 06:44:34;;;;;;;;;;;;;;;26.81;41.21;93228.09;4978677;28;7496;-63
2023/10/24 06:47:13;;;;;;;;;;;;;;;26.88;41.40;93232.91;4972813;28;8744;-63
2023/10/24 06:49:52;;;;;;;;;;;;;;;26.89;41.20;93223.34;4979570;28;7933;-63
2023/10/24 06:52:31;;;;;;;;;;;;;;;26.94;41.60;93233.47;4962165;28;7242;-63
2023/10/24 06:54:59;;;;;;;;;;;;;;;26.97;41.29;93237.16;4947438;28;8777;-63
2023/10/24 06:57:38;;;;;;;;;;;;;;;27.03;41.61;93244.00;4961169;28;7168;-63
2023/10/24 07:00:08;;;;;;;;;;;;;;;27.05;41.29;93241.44;4979894;28;7218;-63
2023/10/24 07:02:45;;;;;;;;;;;;;;;27.08;41.32;93236.84;4969392;28;9133;-63
2023/10/24 07:05:20;;;;;;;;;;;;;;;27.10;40.96;93240.50;4957146;28;7090;-63
2023/10/24 07:07:48;;;;;;;;;;;;;;;27.10;41.11;93231.50;4967463;28;7407;-63
2023/10/24 07:10:21;;;;;;;;;;;;;;;27.14;41.49;93240.91;4966994;28;7596;-62
2023/10/24 07:12:56;;;;;;;;;;;;;;;27.15;40.99;93228.56;4965266;28;7724;-62
2023/10/24 07:15:27;;;;;;;;;;;;;;;27.16;41.14;93241.09;4965441;28;7268;-62
2023/10/24 07:17:53;;;;;;;;;;;;;;;27.24;41.30;93249.38;4953045;28;7196;-62
2023/10/24 07:20:39;;;;;;;;;;;;;;;27.25;41.02;93243.28;4957826;28;8829;-62
2023/10/24 07:23:05;;;;;;;;;;;;;;;27.25;40.90;93231.53;5033697;28;7252;-62
2023/10/24 07:25:36;;;;;;;;;;;;;;;27.26;41.22;93242.03;5038084;28;7223;-62
2023/10/24 07:28:05;;;;;;;;;;;;;;;27.28;40.90;93242.22;5046781;28;7407;-62
2023/10/24 07:30:33;;;;;;;;;;;;;;;27.27;41.39;93235.22;5045563;28;7195;-62
2023/10/24 07:33:10;;;;;;;;;;;;;;;27.29;41.30;93231.91;5029997;28;8739;-62
2023/10/24 07:35:46;;;;;;;;;;;;;;;27.31;41.64;93254.91;5034039;28;9108;-62
2023/10/24 07:38:14;;;;;;;;;;;;;;;27.32;41.18;93263.91;5025558;28;9155;-62
2023/10/24 07:40:42;;;;;;;;;;;;;;;27.32;41.64;93258.41;5033090;28;9316;-62
2023/10/24 07:43:26;;;;;;;;;;;;;;;27.30;41.13;93255.44;5028824;28;8847;-62
2023/10/24 07:46:19;;;;;;;;;;;;;;;27.31;41.74;93263.22;5012310;28;7065;-63
2023/10/24 07:48:53;;;;;;;;;;;;;;;27.31;41.42;93274.25;5042133;28;8847;-63
2023/10/24 07:51:33;;;;;;;;;;;;;;;27.32;41.68;93267.44;5034443;28;9121;-63
2023/10/24 07:54:01;;;;;;;;;;;;;;;27.31;41.72;93263.22;5043675;28;7197;-63
2023/10/24 07:56:28;;;;;;;;;;;;;;;27.33;41.98;93271.69;5027632;28;7247;-63
2023/10/24 07:59:08;;;;;;;;;;;;;;;27.34;41.29;93273.13;5030276;28;7256;-62
2023/10/24 08:01:35;;;;;;;;;;;;;;;27.35;41.83;93279.41;5045204;28;7228;-63
2023/10/24 08:04:01;;;;;;;;;;;;;;;27.35;42.25;93273.88;5037916;28;7623;-63
2023/10/24 08:06:47;;;;;;;;;;;;;;;27.36;41.53;93272.63;5057599;28;7560;-63
2023/10/24 08:09:13;;;;;;;;;;;;;;;27.35;42.17;93274.66;5046300;28;9145;-63
2023/10/24 08:11:41;;;;;;;;;;;;;;;27.37;41.70;93274.84;5039061;28;9111;-62
2023/10/24 08:14:13;;;;;;;;;;;;;;;27.36;41.56;93269.88;5031950;28;7243;-63
2023/10/24 08:16:40;;;;;;;;;;;;;;;27.33;41.50;93266.16;5029704;28;8915;-63
2023/10/24 08:19:11;;;;;;;;;;;;;;;27.34;41.76;93266.91;5020238;28;7238;-63
2023/10/24 08:21:39;;;;;;;;;;;;;;;27.34;41.64;93270.38;5041035;28;7297;-63
2023/10/24 08:24:05;;;;;;;;;;;;;;;27.34;41.80;93273.13;5025402;28;8839;-63
2023/10/24 08:26:42;;;;;;;;;;;;;;;27.31;41.83;93270.75;5041918;28;9433;-63
2023/10/24 08:29:20;;;;;;;;;;;;;;;27.30;41.11;93280.31;5039598;28;7076;-63
2023/10/24 08:31:48;;;;;;;;;;;;;;;27.30;41.85;93283.81;5052529;28;7283;-63
2023/10/24 08:34:28;;;;;;;;;;;;;;;27.27;41.59;93282.16;5026840;28;7497;-63
2023/10/24 08:36:55;;;;;;;;;;;;;;;27.26;42.02;93275.16;5017740;28;7236;-63
2023/10/24 08:39:26;;;;;;;;;;;;;;;27.26;41.85;93290.97;5041725;28;7239;-63
2023/10/24 08:42:04;;;;;;;;;;;;;;;27.23;41.81;93292.81;5053117;28;7860;-63
2023/10/24 08:44:30;;;;;;;;;;;;;;;27.23;41.92;93294.84;5027321;28;6999;-63
2023/10/24 08:46:57;;;;;;;;;;;;;;;27.20;42.02;93288.38;5019207;28;8538;-63
2023/10/24 08:49:23;;;;;;;;;;;;;;;27.20;41.92;93295.94;5032406;28;7214;-63
2023/10/24 08:51:51;;;;;;;;;;;;;;;27.19;41.75;93297.94;5039658;28;7320;-63
2023/10/24 08:54:17;;;;;;;;;;;;;;;27.17;42.02;93297.75;5036340;28;7191;-61
2023/10/24 08:56:46;;;;;;;;;;;;;;;27.15;41.90;93294.81;5027771;28;8778;-60
2023/10/24 08:59:13;;;;;;;;;;;;;;;27.12;42.18;93297.94;5028476;28;7009;-61
2023/10/24 09:01:46;;;;;;;;;;;;;;;27.11;41.87;93304.72;5040749;28;8822;-60
2023/10/24 09:04:15;;;;;;;;;;;;;;;27.10;41.46;93306.03;5029873;28;9097;-61
2023/10/24 09:06:47;;;;;;;;;;;;;;;27.07;41.50;93304.34;5036049;28;7266;-60
2023/10/24 09:09:15;;;;;;;;;;;;;;;27.07;41.82;93310.63;5043071;28;7271;-61
2023/10/24 09:11:56;;;;;;;;;;;;;;;27.06;42.17;93303.59;5030692;28;7607;-60
2023/10/24 09:14:28;;;;;;;;;;;;;;;27.02;42.27;93300.47;5028759;28;7211;-60
2023/10/24 09:17:12;;;;;;;;;;;;;;;27.03;42.06;93304.72;5051066;28;7006;-60
2023/10/24 09:19:49;;;;;;;;;;;;;;;27.01;42.12;93285.19;5025544;28;7024;-60
2023/10/24 09:22:52;;;;;;;;;;;;;;;27.03;42.19;93281.88;5030944;28;7258;-60
2023/10/24 09:25:29;;;;;;;;;;;;;;;26.96;42.28;93288.84;4977092;28;7203;-60
2023/10/24 09:28:16;;;;;;;;;;;;;;;26.98;42.02;93286.28;4976620;28;7223;-60
2023/10/24 09:30:44;;;;;;;;;;;;;;;26.95;42.23;93292.88;4972874;28;7025;-60
2023/10/24 09:33:11;;;;;;;;;;;;;;;26.94;41.99;93296.94;4978391;28;9429;-60
2023/10/24 09:35:47;;;;;;;;;;;;;;;26.95;41.72;93298.41;4961003;28;7368;-60
2023/10/24 09:38:30;;;;;;;;;;;;;;;26.94;42.17;93296.94;4956711;28;7219;-61
2023/10/24 09:41:05;;;;;;;;;;;;;;;26.93;42.29;93289.94;4952735;28;7229;-60
2023/10/24 09:43:40;;;;;;;;;;;;;;;26.92;42.57;93290.50;4961874;28;7301;-60
2023/10/24 09:46:08;;;;;;;;;;;;;;;26.91;42.42;93292.50;4965147;28;7208;-60
2023/10/24 09:48:40;;;;;;;;;;;;;;;26.89;42.26;93292.31;4976647;28;7489;-61
2023/10/24 09:51:31;;;;;;;;;;;;;;;26.89;42.57;93284.03;4954766;28;7597;-60
2023/10/24 09:54:03;;;;;;;;;;;;;;;26.87;42.89;93281.84;4950191;28;7196;-60
2023/10/24 09:57:15;;;;;;;;;;;;;;;26.88;42.50;93288.09;4957571;28;8388;-60
2023/10/24 10:00:00;;;;;;;;;;;;;;;26.82;42.40;93291.00;4933988;28;8298;-61
2023/10/24 10:02:27;;;;;;;;;;;;;;;26.81;42.66;93291.56;4968137;28;8725;-60
2023/10/24 10:04:55;;;;;;;;;;;;;;;26.80;42.46;93290.06;4945763;28;8027;-62
2023/10/24 10:07:28;;;;;;;;;;;;;;;26.81;42.85;93277.75;4945445;28;6971;-62
2023/10/24 10:09:58;;;;;;;;;;;;;;;26.82;42.50;93268.19;4949376;28;6982;-62
2023/10/24 10:12:28;;;;;;;;;;;;;;;26.81;42.56;93261.94;4965372;28;7116;-62
2023/10/24 10:15:22;;;;;;;;;;;;;;;26.80;42.21;93251.44;4954311;28;9001;-62
2023/10/24 10:18:25;;;;;;;;;;;;;;;26.80;42.90;93246.66;4963786;28;9463;-62
2023/10/24 10:21:10;;;;;;;;;;;;;;;26.81;42.47;93266.72;4954334;28;7193;-62
2023/10/24 10:23:51;;;;;;;;;;;;;;;26.78;42.88;93276.09;4961598;28;8922;-62
2023/10/24 10:27:00;;;;;;;;;;;;;;;26.78;42.85;93267.81;4947057;28;7140;-62
2023/10/24 10:30:03;;;;;;;;;;;;;;;26.78;42.69;93265.78;4968278;28;7463;-62
2023/10/24 10:33:21;;;;;;;;;;;;;;;26.76;42.88;93268.34;4968201;28;9108;-62
2023/10/24 10:36:04;;;;;;;;;;;;;;;26.76;42.85;93260.09;4919534;28;7443;-62
2023/10/24 10:39:10;;;;;;;;;;;;;;;26.73;43.03;93258.41;4989202;28;9476;-62
2023/10/24 10:41:46;;;;;;;;;;;;;;;26.73;43.30;93254.94;4979328;28;8824;-63
2023/10/24 10:44:48;;;;;;;;;;;;;;;26.72;43.29;93254.16;4973156;28;7805;-62
2023/10/24 10:47:16;;;;;;;;;;;;;;;26.72;43.29;93253.41;4931119;29;7322;-63
2023/10/24 10:49:59;;;;;;;;;;;;;;;26.70;43.57;93242.19;4926993;29;7348;-62
2023/10/24 10:53:18;;;;;;;;;;;;;;;26.71;43.26;93232.63;4929615;29;8779;-62
2023/10/24 10:56:13;;;;;;;;;;;;;;;26.70;43.23;93225.63;4908272;29;7222;-62
2023/10/24 10:59:05;;;;;;;;;;;;;;;26.70;43.11;93218.09;4897471;29;7256;-62
2023/10/24 11:02:05;;;;;;;;;;;;;;;26.70;43.34;93187.03;4910539;29;9139;-62
2023/10/24 11:04:31;;;;;;;;;;;;;;;26.70;43.26;93200.81;4911518;29;7082;-62
2023/10/24 11:07:37;;;;;;;;;;;;;;;26.70;43.27;93204.31;4912172;29;7250;-62
2023/10/24 11:10:16;;;;;;;;;;;;;;;26.70;43.14;93203.56;4913695;29;7210;-62
2023/10/24 11:12:53;;;;;;;;;;;;;;;26.67;43.31;93207.41;4874375;29;8758;-62
2023/10/24 11:15:21;;;;;;;;;;;;;;;26.67;43.23;93223.97;4889270;29;8219;-56
2023/10/24 11:17:47;;;;;;;;;;;;;;;26.67;42.60;93221.19;4891172;29;7265;-56
2023/10/24 11:20:24;;;;;;;;;;;;;;;26.63;42.91;93227.09;4874477;29;7109;-56
2023/10/24 11:22:53;;;;;;;;;;;;;;;26.63;43.17;93231.84;4910283;28;7345;-56
2023/10/24 11:25:23;;;;;;;;;;;;;;;26.62;42.87;93233.88;4933872;28;8738;-56
2023/10/24 11:27:51;;;;;;;;;;;;;;;26.63;43.18;93242.88;4947289;28;6977;-56
2023/10/24 11:30:29;;;;;;;;;;;;;;;26.58;43.08;93236.25;4952306;28;7428;-56
2023/10/24 11:33:01;;;;;;;;;;;;;;;26.60;43.01;93236.44;5037527;28;7257;-56
2023/10/24 11:35:46;;;;;;;;;;;;;;;26.58;43.05;93232.75;5033246;28;7838;-57
2023/10/24 11:38:15;;;;;;;;;;;;;;;26.59;43.08;93229.47;5034470;28;8482;-56
2023/10/24 11:40:47;;;;;;;;;;;;;;;26.59;42.77;93229.47;5038869;28;7277;-57
2023/10/24 11:43:15;;;;;;;;;;;;;;;26.57;42.92;93226.50;5029450;28;7034;-57
2023/10/24 11:45:41;;;;;;;;;;;;;;;26.54;42.96;93224.84;5045785;28;6988;-56
2023/10/24 11:48:07;;;;;;;;;;;;;;;26.56;42.96;93224.28;5017483;28;7588;-56
2023/10/24 11:50:45;;;;;;;;;;;;;;;26.57;42.56;93206.47;5025918;28;7325;-56
2023/10/24 11:53:19;;;;;;;;;;;;;;;26.57;42.98;93198.19;5048906;28;9291;-57
2023/10/24 11:55:47;;;;;;;;;;;;;;;26.56;43.49;93196.69;5034421;28;7280;-57
2023/10/24 11:58:17;;;;;;;;;;;;;;;26.56;43.13;93196.69;5045599;28;7209;-56
2023/10/24 12:00:43;;;;;;;;;;;;;;;26.55;43.59;93201.50;5031883;28;8082;-57
2023/10/24 12:03:42;;;;;;;;;;;;;;;26.54;43.43;93193.75;5044490;28;7284;-56
2023/10/24 12:06:10;;;;;;;;;;;;;;;26.54;43.49;93199.28;5038964;28;9052;-57
2023/10/24 12:08:45;;;;;;;;;;;;;;;26.52;43.06;93197.06;5042478;28;7256;-56
2023/10/24 12:11:23;;;;;;;;;;;;;;;26.52;43.17;93190.81;5025080;28;7638;-56
2023/10/24 12:13:52;;;;;;;;;;;;;;;26.51;42.88;93197.63;5024563;28;7454;-57
2023/10/24 12:16:20;;;;;;;;;;;;;;;26.50;43.03;93198.88;5026718;28;10013;-56
2023/10/24 12:18:52;;;;;;;;;;;;;;;26.49;43.15;93198.16;5046467;28;7277;-56
2023/10/24 12:21:31;;;;;;;;;;;;;;;26.48;43.37;93190.44;5025935;28;7381;-57
2023/10/24 12:24:13;;;;;;;;;;;;;;;26.46;42.74;93188.22;5035619;28;7255;-61
2023/10/24 12:26:59;;;;;;;;;;;;;;;26.44;42.88;93190.78;5041819;28;7197;-62
2023/10/24 12:29:25;;;;;;;;;;;;;;;26.44;43.44;93193.53;5028839;28;7384;-62
2023/10/24 12:31:51;;;;;;;;;;;;;;;26.45;43.01;93183.22;5037723;28;7163;-61
2023/10/24 12:34:22;;;;;;;;;;;;;;;26.43;43.23;93167.25;5042659;28;7069;-61
2023/10/24 12:36:53;;;;;;;;;;;;;;;26.44;43.28;93168.72;5045365;28;7225;-62
2023/10/24 12:39:21;;;;;;;;;;;;;;;26.44;43.32;93173.50;5030178;28;6969;-62
2023/10/24 12:41:49;;;;;;;;;;;;;;;26.45;43.48;93174.97;5050279;28;7100;-62
2023/10/24 12:44:19;;;;;;;;;;;;;;;26.44;43.36;93165.22;5034807;28;7195;-61
2023/10/24 12:46:45;;;;;;;;;;;;;;;26.42;43.23;93174.06;5044213;28;9540;-62
2023/10/24 12:49:15;;;;;;;;;;;;;;;26.41;43.20;93174.59;5041975;28;6990;-62
2023/10/24 12:51:44;;;;;;;;;;;;;;;26.42;43.38;93176.06;5035879;28;7158;-62
2023/10/24 12:54:14;;;;;;;;;;;;;;;26.41;43.09;93163.56;5025687;28;8948;-62
2023/10/24 12:56:40;;;;;;;;;;;;;;;26.42;43.21;93170.56;5043113;28;7234;-62
2023/10/24 12:59:33;;;;;;;;;;;;;;;26.39;43.19;93174.38;5038602;28;7250;-61
2023/10/24 13:02:09;;;;;;;;;;;;;;;26.39;43.42;93172.38;4976216;28;8751;-62
2023/10/24 13:04:36;;;;;;;;;;;;;;;26.37;43.23;93174.94;4976076;28;6986;-62
2023/10/24 13:07:15;;;;;;;;;;;;;;;26.37;43.81;93185.22;4973859;28;8774;-62
2023/10/24 13:09:43;;;;;;;;;;;;;;;26.36;43.38;93183.78;4989431;28;7429;-62
2023/10/24 13:12:10;;;;;;;;;;;;;;;26.37;43.05;93185.22;4992799;28;8760;-62
2023/10/24 13:14:36;;;;;;;;;;;;;;;26.32;43.38;93183.38;4967891;28;7590;-61
2023/10/24 13:17:02;;;;;;;;;;;;;;;26.33;43.15;93190.34;4985942;28;7534;-61
2023/10/24 13:19:29;;;;;;;;;;;;;;;26.33;43.17;93185.59;4968558;28;7800;-61
2023/10/24 13:21:56;;;;;;;;;;;;;;;26.35;43.10;93187.78;4972512;28;9074;-62
2023/10/24 13:24:27;;;;;;;;;;;;;;;26.34;43.18;93191.84;4991265;28;8757;-62
2023/10/24 13:26:53;;;;;;;;;;;;;;;26.32;43.54;93199.94;4990751;28;8936;-61
2023/10/24 13:29:20;;;;;;;;;;;;;;;26.29;43.31;93192.72;4970801;28;7247;-61